sensor_id;sensor_type;location;lat;lon;timestamp;P1;durP1;ratioP1;P2;durP2;ratioP2
7833;SDS011;3962;42.696;23.354;2023-08-24T00:01:16;5.00;;;4.80;;
7833;SDS011;3962;42.696;23.354;2023-08-24T00:03:44;4.40;;;4.20;;
7833;SDS011;3962;42.696;23.354;2023-08-24T00:06:12;5.37;;;5.10;;
7833;SDS011;3962;42.696;23.354;2023-08-24T00:08:39;4.90;;;4.70;;
7833;SDS011;3962;42.696;23.354;2023-08-24T00:11:06;5.53;;;5.33;;
7833;SDS011;3962;42.696;23.354;2023-08-24T00:13:35;5.10;;;4.90;;
7833;SDS011;3962;42.696;23.354;2023-08-24T00:16:02;4.97;;;4.77;;
7833;SDS011;3962;42.696;23.354;2023-08-24T00:18:29;4.80;;;4.60;;
7833;SDS011;3962;42.696;23.354;2023-08-24T00:20:56;5.10;;;4.90;;
7833;SDS011;3962;42.696;23.354;2023-08-24T00:23:23;5.57;;;5.20;;
7833;SDS011;3962;42.696;23.354;2023-08-24T00:25:51;5.17;;;4.97;;
7833;SDS011;3962;42.696;23.354;2023-08-24T00:28:17;5.03;;;4.73;;
7833;SDS011;3962;42.696;23.354;2023-08-24T00:30:46;5.73;;;5.43;;
7833;SDS011;3962;42.696;23.354;2023-08-24T00:33:12;5.87;;;5.57;;
7833;SDS011;3962;42.696;23.354;2023-08-24T00:35:39;4.83;;;4.63;;
7833;SDS011;3962;42.696;23.354;2023-08-24T00:38:06;5.43;;;5.13;;
7833;SDS011;3962;42.696;23.354;2023-08-24T00:40:33;5.37;;;5.17;;
7833;SDS011;3962;42.696;23.354;2023-08-24T00:43:00;4.80;;;4.60;;
7833;SDS011;3962;42.696;23.354;2023-08-24T00:45:27;5.03;;;4.83;;
7833;SDS011;3962;42.696;23.354;2023-08-24T00:47:59;5.70;;;5.40;;
7833;SDS011;3962;42.696;23.354;2023-08-24T00:50:26;4.97;;;4.77;;
7833;SDS011;3962;42.696;23.354;2023-08-24T00:52:53;5.07;;;4.87;;
7833;SDS011;3962;42.696;23.354;2023-08-24T00:55:20;5.03;;;4.83;;
7833;SDS011;3962;42.696;23.354;2023-08-24T00:57:47;4.63;;;4.43;;
7833;SDS011;3962;42.696;23.354;2023-08-24T01:00:16;5.20;;;5.00;;
7833;SDS011;3962;42.696;23.354;2023-08-24T01:02:43;5.03;;;4.83;;
7833;SDS011;3962;42.696;23.354;2023-08-24T01:05:13;5.20;;;5.00;;
7833;SDS011;3962;42.696;23.354;2023-08-24T01:07:39;5.33;;;5.13;;
7833;SDS011;3962;42.696;23.354;2023-08-24T01:10:07;5.20;;;5.00;;
7833;SDS011;3962;42.696;23.354;2023-08-24T01:12:39;5.30;;;5.10;;
7833;SDS011;3962;42.696;23.354;2023-08-24T01:15:17;4.47;;;4.27;;
7833;SDS011;3962;42.696;23.354;2023-08-24T01:17:49;5.13;;;4.93;;
7833;SDS011;3962;42.696;23.354;2023-08-24T01:20:19;5.23;;;4.90;;
7833;SDS011;3962;42.696;23.354;2023-08-24T01:22:49;5.03;;;4.83;;
7833;SDS011;3962;42.696;23.354;2023-08-24T01:25:24;5.00;;;4.80;;
7833;SDS011;3962;42.696;23.354;2023-08-24T01:28:04;4.20;;;4.07;;
7833;SDS011;3962;42.696;23.354;2023-08-24T01:30:32;4.90;;;4.70;;
7833;SDS011;3962;42.696;23.354;2023-08-24T01:33:02;4.83;;;4.63;;
7833;SDS011;3962;42.696;23.354;2023-08-24T01:35:29;4.93;;;4.73;;
7833;SDS011;3962;42.696;23.354;2023-08-24T01:37:56;4.77;;;4.57;;
7833;SDS011;3962;42.696;23.354;2023-08-24T01:40:35;5.43;;;5.03;;
7833;SDS011;3962;42.696;23.354;2023-08-24T01:43:13;4.87;;;4.67;;
7833;SDS011;3962;42.696;23.354;2023-08-24T01:45:41;5.67;;;5.47;;
7833;SDS011;3962;42.696;23.354;2023-08-24T01:48:10;6.40;;;6.10;;
7833;SDS011;3962;42.696;23.354;2023-08-24T01:50:39;5.80;;;5.60;;
7833;SDS011;3962;42.696;23.354;2023-08-24T01:53:06;5.40;;;5.20;;
7833;SDS011;3962;42.696;23.354;2023-08-24T01:55:33;5.67;;;5.47;;
7833;SDS011;3962;42.696;23.354;2023-08-24T01:58:00;5.43;;;5.23;;
7833;SDS011;3962;42.696;23.354;2023-08-24T02:00:29;5.73;;;5.53;;
7833;SDS011;3962;42.696;23.354;2023-08-24T02:02:56;6.60;;;6.30;;
7833;SDS011;3962;42.696;23.354;2023-08-24T02:05:23;5.63;;;5.40;;
7833;SDS011;3962;42.696;23.354;2023-08-24T02:07:52;6.20;;;5.90;;
7833;SDS011;3962;42.696;23.354;2023-08-24T02:10:20;5.03;;;4.83;;
7833;SDS011;3962;42.696;23.354;2023-08-24T02:12:47;5.50;;;5.30;;
7833;SDS011;3962;42.696;23.354;2023-08-24T02:15:13;5.87;;;5.57;;
7833;SDS011;3962;42.696;23.354;2023-08-24T02:17:42;6.50;;;6.20;;
7833;SDS011;3962;42.696;23.354;2023-08-24T02:20:09;5.43;;;5.13;;
7833;SDS011;3962;42.696;23.354;2023-08-24T02:22:37;5.50;;;5.30;;
7833;SDS011;3962;42.696;23.354;2023-08-24T02:25:05;6.27;;;5.97;;
7833;SDS011;3962;42.696;23.354;2023-08-24T02:27:32;5.90;;;5.60;;
7833;SDS011;3962;42.696;23.354;2023-08-24T02:29:59;4.77;;;4.57;;
7833;SDS011;3962;42.696;23.354;2023-08-24T02:32:27;4.90;;;4.70;;
7833;SDS011;3962;42.696;23.354;2023-08-24T02:34:55;4.87;;;4.67;;
7833;SDS011;3962;42.696;23.354;2023-08-24T02:37:22;4.77;;;4.57;;
7833;SDS011;3962;42.696;23.354;2023-08-24T02:39:49;5.30;;;5.10;;
7833;SDS011;3962;42.696;23.354;2023-08-24T02:42:15;5.60;;;5.30;;
7833;SDS011;3962;42.696;23.354;2023-08-24T02:44:42;5.47;;;5.17;;
7833;SDS011;3962;42.696;23.354;2023-08-24T02:47:09;5.33;;;5.13;;
7833;SDS011;3962;42.696;23.354;2023-08-24T02:49:36;5.90;;;5.60;;
7833;SDS011;3962;42.696;23.354;2023-08-24T02:52:04;5.17;;;4.97;;
7833;SDS011;3962;42.696;23.354;2023-08-24T02:54:31;5.63;;;5.33;;
7833;SDS011;3962;42.696;23.354;2023-08-24T02:56:58;5.77;;;5.57;;
7833;SDS011;3962;42.696;23.354;2023-08-24T02:59:25;5.30;;;5.10;;
7833;SDS011;3962;42.696;23.354;2023-08-24T03:01:51;5.43;;;5.23;;
7833;SDS011;3962;42.696;23.354;2023-08-24T03:04:18;5.50;;;5.30;;
7833;SDS011;3962;42.696;23.354;2023-08-24T03:06:46;5.80;;;5.47;;
7833;SDS011;3962;42.696;23.354;2023-08-24T03:09:14;5.07;;;4.87;;
7833;SDS011;3962;42.696;23.354;2023-08-24T03:11:41;5.50;;;5.30;;
7833;SDS011;3962;42.696;23.354;2023-08-24T03:14:08;5.83;;;5.53;;
7833;SDS011;3962;42.696;23.354;2023-08-24T03:16:35;5.43;;;5.23;;
7833;SDS011;3962;42.696;23.354;2023-08-24T03:19:03;6.30;;;6.00;;
7833;SDS011;3962;42.696;23.354;2023-08-24T03:21:30;6.20;;;5.90;;
7833;SDS011;3962;42.696;23.354;2023-08-24T03:23:57;5.37;;;5.17;;
7833;SDS011;3962;42.696;23.354;2023-08-24T03:26:25;6.57;;;6.27;;
7833;SDS011;3962;42.696;23.354;2023-08-24T03:28:52;6.50;;;6.20;;
7833;SDS011;3962;42.696;23.354;2023-08-24T03:31:19;6.20;;;5.90;;
7833;SDS011;3962;42.696;23.354;2023-08-24T03:33:46;6.00;;;5.80;;
7833;SDS011;3962;42.696;23.354;2023-08-24T03:36:14;6.03;;;5.73;;
7833;SDS011;3962;42.696;23.354;2023-08-24T03:38:41;5.43;;;5.23;;
7833;SDS011;3962;42.696;23.354;2023-08-24T03:41:08;5.63;;;5.43;;
7833;SDS011;3962;42.696;23.354;2023-08-24T03:43:36;5.97;;;5.67;;
7833;SDS011;3962;42.696;23.354;2023-08-24T03:46:03;6.07;;;5.80;;
7833;SDS011;3962;42.696;23.354;2023-08-24T03:48:30;6.00;;;5.80;;
7833;SDS011;3962;42.696;23.354;2023-08-24T03:50:58;7.60;;;7.10;;
7833;SDS011;3962;42.696;23.354;2023-08-24T03:53:25;6.27;;;6.03;;
7833;SDS011;3962;42.696;23.354;2023-08-24T03:55:52;6.50;;;6.20;;
7833;SDS011;3962;42.696;23.354;2023-08-24T03:58:19;6.17;;;5.87;;
7833;SDS011;3962;42.696;23.354;2023-08-24T04:00:47;5.93;;;5.63;;
7833;SDS011;3962;42.696;23.354;2023-08-24T04:03:14;6.37;;;6.07;;
7833;SDS011;3962;42.696;23.354;2023-08-24T04:05:42;6.03;;;5.73;;
7833;SDS011;3962;42.696;23.354;2023-08-24T04:08:08;6.27;;;5.97;;
7833;SDS011;3962;42.696;23.354;2023-08-24T04:10:35;5.50;;;5.30;;
7833;SDS011;3962;42.696;23.354;2023-08-24T04:13:02;5.40;;;5.20;;
7833;SDS011;3962;42.696;23.354;2023-08-24T04:15:29;5.77;;;5.57;;
7833;SDS011;3962;42.696;23.354;2023-08-24T04:17:58;5.47;;;5.17;;
7833;SDS011;3962;42.696;23.354;2023-08-24T04:20:25;5.67;;;5.47;;
7833;SDS011;3962;42.696;23.354;2023-08-24T04:22:51;5.73;;;5.53;;
7833;SDS011;3962;42.696;23.354;2023-08-24T04:25:18;5.30;;;5.10;;
7833;SDS011;3962;42.696;23.354;2023-08-24T04:27:45;6.23;;;5.93;;
7833;SDS011;3962;42.696;23.354;2023-08-24T04:30:12;6.97;;;6.57;;
7833;SDS011;3962;42.696;23.354;2023-08-24T04:32:39;6.00;;;5.70;;
7833;SDS011;3962;42.696;23.354;2023-08-24T04:35:08;7.07;;;6.67;;
7833;SDS011;3962;42.696;23.354;2023-08-24T04:37:36;6.20;;;5.90;;
7833;SDS011;3962;42.696;23.354;2023-08-24T04:40:04;5.70;;;5.40;;
7833;SDS011;3962;42.696;23.354;2023-08-24T04:42:32;5.53;;;5.23;;
7833;SDS011;3962;42.696;23.354;2023-08-24T04:44:59;6.20;;;5.90;;
7833;SDS011;3962;42.696;23.354;2023-08-24T04:47:26;6.27;;;5.97;;
7833;SDS011;3962;42.696;23.354;2023-08-24T04:49:53;5.47;;;5.27;;
7833;SDS011;3962;42.696;23.354;2023-08-24T04:52:21;5.80;;;5.50;;
7833;SDS011;3962;42.696;23.354;2023-08-24T04:54:48;5.90;;;5.60;;
7833;SDS011;3962;42.696;23.354;2023-08-24T04:57:14;5.07;;;4.87;;
7833;SDS011;3962;42.696;23.354;2023-08-24T04:59:41;5.60;;;5.30;;
7833;SDS011;3962;42.696;23.354;2023-08-24T05:02:08;5.97;;;5.67;;
7833;SDS011;3962;42.696;23.354;2023-08-24T05:04:35;5.33;;;5.03;;
7833;SDS011;3962;42.696;23.354;2023-08-24T05:07:02;5.37;;;5.07;;
7833;SDS011;3962;42.696;23.354;2023-08-24T05:09:30;4.63;;;4.43;;
7833;SDS011;3962;42.696;23.354;2023-08-24T05:11:57;5.00;;;4.80;;
7833;SDS011;3962;42.696;23.354;2023-08-24T05:14:24;4.70;;;4.50;;
7833;SDS011;3962;42.696;23.354;2023-08-24T05:16:51;5.60;;;5.30;;
7833;SDS011;3962;42.696;23.354;2023-08-24T05:19:17;5.40;;;5.20;;
7833;SDS011;3962;42.696;23.354;2023-08-24T05:21:44;5.70;;;5.40;;
7833;SDS011;3962;42.696;23.354;2023-08-24T05:24:11;6.50;;;6.20;;
7833;SDS011;3962;42.696;23.354;2023-08-24T05:26:39;5.97;;;5.67;;
7833;SDS011;3962;42.696;23.354;2023-08-24T05:29:06;5.70;;;5.50;;
7833;SDS011;3962;42.696;23.354;2023-08-24T05:31:33;5.93;;;5.53;;
7833;SDS011;3962;42.696;23.354;2023-08-24T05:34:00;6.57;;;6.27;;
7833;SDS011;3962;42.696;23.354;2023-08-24T05:36:26;6.10;;;5.83;;
7833;SDS011;3962;42.696;23.354;2023-08-24T05:38:53;5.97;;;5.67;;
7833;SDS011;3962;42.696;23.354;2023-08-24T05:41:21;5.60;;;5.40;;
7833;SDS011;3962;42.696;23.354;2023-08-24T05:43:49;5.40;;;5.17;;
7833;SDS011;3962;42.696;23.354;2023-08-24T05:46:17;6.40;;;6.10;;
7833;SDS011;3962;42.696;23.354;2023-08-24T05:48:44;6.40;;;6.10;;
7833;SDS011;3962;42.696;23.354;2023-08-24T05:51:12;5.63;;;5.43;;
7833;SDS011;3962;42.696;23.354;2023-08-24T05:53:39;6.10;;;5.87;;
7833;SDS011;3962;42.696;23.354;2023-08-24T05:56:07;5.27;;;5.07;;
7833;SDS011;3962;42.696;23.354;2023-08-24T05:58:34;5.60;;;5.40;;
7833;SDS011;3962;42.696;23.354;2023-08-24T06:01:03;6.20;;;5.90;;
7833;SDS011;3962;42.696;23.354;2023-08-24T06:03:30;5.67;;;5.37;;
7833;SDS011;3962;42.696;23.354;2023-08-24T06:06:03;5.17;;;4.97;;
7833;SDS011;3962;42.696;23.354;2023-08-24T06:08:30;5.30;;;5.10;;
7833;SDS011;3962;42.696;23.354;2023-08-24T06:10:58;5.73;;;5.47;;
7833;SDS011;3962;42.696;23.354;2023-08-24T06:13:24;5.87;;;5.57;;
7833;SDS011;3962;42.696;23.354;2023-08-24T06:15:52;5.43;;;5.23;;
7833;SDS011;3962;42.696;23.354;2023-08-24T06:18:20;5.20;;;5.00;;
7833;SDS011;3962;42.696;23.354;2023-08-24T06:20:47;5.93;;;5.63;;
7833;SDS011;3962;42.696;23.354;2023-08-24T06:23:15;4.83;;;4.63;;
7833;SDS011;3962;42.696;23.354;2023-08-24T06:25:42;5.50;;;5.30;;
7833;SDS011;3962;42.696;23.354;2023-08-24T06:28:10;5.07;;;4.87;;
7833;SDS011;3962;42.696;23.354;2023-08-24T06:30:37;5.97;;;5.67;;
7833;SDS011;3962;42.696;23.354;2023-08-24T06:33:05;5.23;;;4.90;;
7833;SDS011;3962;42.696;23.354;2023-08-24T06:35:34;4.00;;;3.90;;
7833;SDS011;3962;42.696;23.354;2023-08-24T06:38:01;4.20;;;4.07;;
7833;SDS011;3962;42.696;23.354;2023-08-24T06:40:28;4.27;;;4.10;;
7833;SDS011;3962;42.696;23.354;2023-08-24T06:42:55;4.93;;;4.73;;
7833;SDS011;3962;42.696;23.354;2023-08-24T06:45:22;4.70;;;4.50;;
7833;SDS011;3962;42.696;23.354;2023-08-24T06:47:49;4.47;;;4.27;;
7833;SDS011;3962;42.696;23.354;2023-08-24T06:50:16;4.90;;;4.70;;
7833;SDS011;3962;42.696;23.354;2023-08-24T06:52:45;5.10;;;4.83;;
7833;SDS011;3962;42.696;23.354;2023-08-24T06:55:12;4.83;;;4.63;;
7833;SDS011;3962;42.696;23.354;2023-08-24T06:57:39;5.30;;;5.03;;
7833;SDS011;3962;42.696;23.354;2023-08-24T07:00:07;5.43;;;5.13;;
7833;SDS011;3962;42.696;23.354;2023-08-24T07:02:34;4.90;;;4.60;;
7833;SDS011;3962;42.696;23.354;2023-08-24T07:05:02;4.80;;;4.60;;
7833;SDS011;3962;42.696;23.354;2023-08-24T07:07:31;5.50;;;5.13;;
7833;SDS011;3962;42.696;23.354;2023-08-24T07:09:59;4.73;;;4.53;;
7833;SDS011;3962;42.696;23.354;2023-08-24T07:12:26;5.13;;;4.93;;
7833;SDS011;3962;42.696;23.354;2023-08-24T07:14:52;4.97;;;4.77;;
7833;SDS011;3962;42.696;23.354;2023-08-24T07:17:19;4.70;;;4.50;;
7833;SDS011;3962;42.696;23.354;2023-08-24T07:19:46;4.47;;;4.27;;
7833;SDS011;3962;42.696;23.354;2023-08-24T07:22:13;5.47;;;5.07;;
7833;SDS011;3962;42.696;23.354;2023-08-24T07:24:40;4.27;;;4.07;;
7833;SDS011;3962;42.696;23.354;2023-08-24T07:27:08;4.43;;;4.23;;
7833;SDS011;3962;42.696;23.354;2023-08-24T07:29:35;4.83;;;4.43;;
7833;SDS011;3962;42.696;23.354;2023-08-24T07:32:02;4.63;;;4.43;;
7833;SDS011;3962;42.696;23.354;2023-08-24T07:34:29;4.60;;;4.40;;
7833;SDS011;3962;42.696;23.354;2023-08-24T07:36:56;4.40;;;4.10;;
7833;SDS011;3962;42.696;23.354;2023-08-24T07:39:23;3.47;;;3.33;;
7833;SDS011;3962;42.696;23.354;2023-08-24T07:41:51;3.87;;;3.67;;
7833;SDS011;3962;42.696;23.354;2023-08-24T07:44:19;3.80;;;3.60;;
7833;SDS011;3962;42.696;23.354;2023-08-24T07:46:46;4.40;;;4.10;;
7833;SDS011;3962;42.696;23.354;2023-08-24T07:49:14;3.90;;;3.70;;
7833;SDS011;3962;42.696;23.354;2023-08-24T07:51:41;4.40;;;4.10;;
7833;SDS011;3962;42.696;23.354;2023-08-24T07:54:09;4.23;;;4.03;;
7833;SDS011;3962;42.696;23.354;2023-08-24T07:56:36;4.30;;;4.10;;
7833;SDS011;3962;42.696;23.354;2023-08-24T07:59:02;4.10;;;3.80;;
7833;SDS011;3962;42.696;23.354;2023-08-24T08:01:31;3.57;;;3.37;;
7833;SDS011;3962;42.696;23.354;2023-08-24T08:03:57;3.90;;;3.70;;
7833;SDS011;3962;42.696;23.354;2023-08-24T08:06:25;4.07;;;3.87;;
7833;SDS011;3962;42.696;23.354;2023-08-24T08:08:55;4.00;;;3.80;;
7833;SDS011;3962;42.696;23.354;2023-08-24T08:11:23;4.43;;;4.23;;
7833;SDS011;3962;42.696;23.354;2023-08-24T08:13:50;4.10;;;3.90;;
7833;SDS011;3962;42.696;23.354;2023-08-24T08:16:17;4.20;;;4.00;;
7833;SDS011;3962;42.696;23.354;2023-08-24T08:18:46;3.50;;;3.30;;
7833;SDS011;3962;42.696;23.354;2023-08-24T08:21:14;3.43;;;3.23;;
7833;SDS011;3962;42.696;23.354;2023-08-24T08:23:44;4.20;;;4.00;;
7833;SDS011;3962;42.696;23.354;2023-08-24T08:26:11;3.90;;;3.70;;
7833;SDS011;3962;42.696;23.354;2023-08-24T08:28:39;4.13;;;3.93;;
7833;SDS011;3962;42.696;23.354;2023-08-24T08:31:06;3.93;;;3.73;;
7833;SDS011;3962;42.696;23.354;2023-08-24T08:33:33;4.30;;;4.10;;
7833;SDS011;3962;42.696;23.354;2023-08-24T08:36:01;3.80;;;3.60;;
7833;SDS011;3962;42.696;23.354;2023-08-24T08:38:29;3.10;;;3.00;;
7833;SDS011;3962;42.696;23.354;2023-08-24T08:40:56;3.87;;;3.67;;
7833;SDS011;3962;42.696;23.354;2023-08-24T08:43:28;3.38;;;3.28;;
7833;SDS011;3962;42.696;23.354;2023-08-24T08:45:56;3.83;;;3.63;;
7833;SDS011;3962;42.696;23.354;2023-08-24T08:48:24;3.35;;;3.15;;
7833;SDS011;3962;42.696;23.354;2023-08-24T08:50:52;3.60;;;3.40;;
7833;SDS011;3962;42.696;23.354;2023-08-24T08:53:22;3.17;;;3.08;;
7833;SDS011;3962;42.696;23.354;2023-08-24T08:55:50;3.35;;;3.22;;
7833;SDS011;3962;42.696;23.354;2023-08-24T08:58:18;3.28;;;3.17;;
7833;SDS011;3962;42.696;23.354;2023-08-24T09:00:46;3.57;;;3.37;;
7833;SDS011;3962;42.696;23.354;2023-08-24T09:03:13;3.22;;;3.13;;
7833;SDS011;3962;42.696;23.354;2023-08-24T09:05:43;3.50;;;3.30;;
7833;SDS011;3962;42.696;23.354;2023-08-24T09:08:13;3.20;;;3.10;;
7833;SDS011;3962;42.696;23.354;2023-08-24T09:10:42;3.25;;;3.15;;
7833;SDS011;3962;42.696;23.354;2023-08-24T09:13:09;3.33;;;3.20;;
7833;SDS011;3962;42.696;23.354;2023-08-24T09:15:36;3.85;;;3.55;;
7833;SDS011;3962;42.696;23.354;2023-08-24T09:18:03;3.10;;;3.00;;
7833;SDS011;3962;42.696;23.354;2023-08-24T09:20:30;3.00;;;2.90;;
7833;SDS011;3962;42.696;23.354;2023-08-24T09:22:57;3.83;;;3.63;;
7833;SDS011;3962;42.696;23.354;2023-08-24T09:25:25;4.30;;;4.00;;
7833;SDS011;3962;42.696;23.354;2023-08-24T09:28:01;3.30;;;3.20;;
7833;SDS011;3962;42.696;23.354;2023-08-24T09:30:29;3.10;;;3.00;;
7833;SDS011;3962;42.696;23.354;2023-08-24T09:33:00;3.40;;;3.20;;
7833;SDS011;3962;42.696;23.354;2023-08-24T09:35:28;3.22;;;3.13;;
7833;SDS011;3962;42.696;23.354;2023-08-24T09:37:54;3.58;;;3.38;;
7833;SDS011;3962;42.696;23.354;2023-08-24T09:40:23;3.38;;;3.20;;
7833;SDS011;3962;42.696;23.354;2023-08-24T09:42:51;3.67;;;3.58;;
7833;SDS011;3962;42.696;23.354;2023-08-24T09:45:19;3.92;;;3.63;;
7833;SDS011;3962;42.696;23.354;2023-08-24T09:47:49;3.53;;;3.42;;
7833;SDS011;3962;42.696;23.354;2023-08-24T09:50:18;3.13;;;3.03;;
7833;SDS011;3962;42.696;23.354;2023-08-24T09:52:45;2.90;;;2.80;;
7833;SDS011;3962;42.696;23.354;2023-08-24T09:55:16;3.83;;;3.53;;
7833;SDS011;3962;42.696;23.354;2023-08-24T09:57:47;2.72;;;2.63;;
7833;SDS011;3962;42.696;23.354;2023-08-24T10:00:20;2.78;;;2.67;;
7833;SDS011;3962;42.696;23.354;2023-08-24T10:02:50;3.17;;;3.08;;
7833;SDS011;3962;42.696;23.354;2023-08-24T10:05:19;3.00;;;2.90;;
7833;SDS011;3962;42.696;23.354;2023-08-24T10:07:48;2.60;;;2.50;;
7833;SDS011;3962;42.696;23.354;2023-08-24T10:10:19;2.78;;;2.67;;
7833;SDS011;3962;42.696;23.354;2023-08-24T10:12:47;2.45;;;2.35;;
7833;SDS011;3962;42.696;23.354;2023-08-24T10:15:19;2.92;;;2.83;;
7833;SDS011;3962;42.696;23.354;2023-08-24T10:17:48;2.80;;;2.70;;
7833;SDS011;3962;42.696;23.354;2023-08-24T10:20:17;2.60;;;2.50;;
7833;SDS011;3962;42.696;23.354;2023-08-24T10:22:46;2.83;;;2.72;;
7833;SDS011;3962;42.696;23.354;2023-08-24T10:25:14;2.67;;;2.58;;
7833;SDS011;3962;42.696;23.354;2023-08-24T10:27:42;2.38;;;2.28;;
7833;SDS011;3962;42.696;23.354;2023-08-24T10:30:13;2.80;;;2.70;;
7833;SDS011;3962;42.696;23.354;2023-08-24T10:32:42;2.53;;;2.42;;
7833;SDS011;3962;42.696;23.354;2023-08-24T10:35:11;2.60;;;2.50;;
7833;SDS011;3962;42.696;23.354;2023-08-24T10:37:43;2.80;;;2.70;;
7833;SDS011;3962;42.696;23.354;2023-08-24T10:40:12;2.83;;;2.72;;
7833;SDS011;3962;42.696;23.354;2023-08-24T10:42:43;2.80;;;2.70;;
7833;SDS011;3962;42.696;23.354;2023-08-24T10:45:11;2.65;;;2.55;;
7833;SDS011;3962;42.696;23.354;2023-08-24T10:47:44;2.83;;;2.72;;
7833;SDS011;3962;42.696;23.354;2023-08-24T10:50:12;2.97;;;2.87;;
7833;SDS011;3962;42.696;23.354;2023-08-24T10:52:40;2.70;;;2.60;;
7833;SDS011;3962;42.696;23.354;2023-08-24T10:57:56;3.10;;;3.00;;
7833;SDS011;3962;42.696;23.354;2023-08-24T11:00:25;3.90;;;3.60;;
7833;SDS011;3962;42.696;23.354;2023-08-24T11:02:54;3.13;;;3.03;;
7833;SDS011;3962;42.696;23.354;2023-08-24T11:05:24;3.60;;;3.50;;
7833;SDS011;3962;42.696;23.354;2023-08-24T11:07:55;3.33;;;3.23;;
7833;SDS011;3962;42.696;23.354;2023-08-24T11:10:23;4.57;;;4.33;;
7833;SDS011;3962;42.696;23.354;2023-08-24T11:13:07;3.67;;;3.57;;
7833;SDS011;3962;42.696;23.354;2023-08-24T11:15:39;4.33;;;4.13;;
7833;SDS011;3962;42.696;23.354;2023-08-24T11:18:12;3.87;;;3.77;;
7833;SDS011;3962;42.696;23.354;2023-08-24T11:20:51;3.67;;;3.57;;
7833;SDS011;3962;42.696;23.354;2023-08-24T11:23:19;3.87;;;3.77;;
7833;SDS011;3962;42.696;23.354;2023-08-24T11:25:47;4.53;;;4.33;;
7833;SDS011;3962;42.696;23.354;2023-08-24T11:28:16;3.80;;;3.70;;
7833;SDS011;3962;42.696;23.354;2023-08-24T11:30:45;3.57;;;3.47;;
7833;SDS011;3962;42.696;23.354;2023-08-24T11:33:13;3.53;;;3.42;;
7833;SDS011;3962;42.696;23.354;2023-08-24T11:35:41;3.83;;;3.73;;
7833;SDS011;3962;42.696;23.354;2023-08-24T11:38:10;4.10;;;3.90;;
7833;SDS011;3962;42.696;23.354;2023-08-24T11:40:38;4.00;;;3.80;;
7833;SDS011;3962;42.696;23.354;2023-08-24T11:43:05;4.50;;;4.20;;
7833;SDS011;3962;42.696;23.354;2023-08-24T11:45:32;3.30;;;3.20;;
7833;SDS011;3962;42.696;23.354;2023-08-24T11:48:01;4.30;;;4.00;;
7833;SDS011;3962;42.696;23.354;2023-08-24T11:50:31;4.23;;;4.03;;
7833;SDS011;3962;42.696;23.354;2023-08-24T11:53:00;4.20;;;4.00;;
7833;SDS011;3962;42.696;23.354;2023-08-24T11:55:27;4.43;;;4.23;;
7833;SDS011;3962;42.696;23.354;2023-08-24T11:57:54;3.80;;;3.60;;
7833;SDS011;3962;42.696;23.354;2023-08-24T12:00:22;4.50;;;4.30;;
7833;SDS011;3962;42.696;23.354;2023-08-24T12:02:49;3.67;;;3.50;;
7833;SDS011;3962;42.696;23.354;2023-08-24T12:05:20;5.50;;;4.53;;
7833;SDS011;3962;42.696;23.354;2023-08-24T12:07:50;3.80;;;3.60;;
7833;SDS011;3962;42.696;23.354;2023-08-24T12:10:18;3.80;;;3.60;;
7833;SDS011;3962;42.696;23.354;2023-08-24T12:12:46;4.20;;;4.00;;
7833;SDS011;3962;42.696;23.354;2023-08-24T12:15:17;4.87;;;4.60;;
7833;SDS011;3962;42.696;23.354;2023-08-24T12:17:45;4.33;;;4.13;;
7833;SDS011;3962;42.696;23.354;2023-08-24T12:20:17;4.77;;;4.43;;
7833;SDS011;3962;42.696;23.354;2023-08-24T12:22:53;3.87;;;3.73;;
7833;SDS011;3962;42.696;23.354;2023-08-24T12:25:24;3.97;;;3.87;;
7833;SDS011;3962;42.696;23.354;2023-08-24T12:27:51;4.97;;;4.67;;
7833;SDS011;3962;42.696;23.354;2023-08-24T12:30:19;4.13;;;3.80;;
7833;SDS011;3962;42.696;23.354;2023-08-24T12:32:46;4.23;;;4.03;;
7833;SDS011;3962;42.696;23.354;2023-08-24T12:35:15;4.20;;;3.90;;
7833;SDS011;3962;42.696;23.354;2023-08-24T12:37:43;4.43;;;4.23;;
7833;SDS011;3962;42.696;23.354;2023-08-24T12:40:12;3.70;;;3.60;;
7833;SDS011;3962;42.696;23.354;2023-08-24T12:42:39;3.77;;;3.63;;
7833;SDS011;3962;42.696;23.354;2023-08-24T12:45:06;4.50;;;4.30;;
7833;SDS011;3962;42.696;23.354;2023-08-24T12:47:34;4.13;;;3.93;;
7833;SDS011;3962;42.696;23.354;2023-08-24T12:50:04;4.17;;;3.97;;
7833;SDS011;3962;42.696;23.354;2023-08-24T12:52:32;3.93;;;3.73;;
7833;SDS011;3962;42.696;23.354;2023-08-24T12:54:59;4.20;;;4.00;;
7833;SDS011;3962;42.696;23.354;2023-08-24T12:57:28;4.77;;;4.57;;
7833;SDS011;3962;42.696;23.354;2023-08-24T12:59:54;4.83;;;4.57;;
7833;SDS011;3962;42.696;23.354;2023-08-24T13:02:21;4.40;;;4.20;;
7833;SDS011;3962;42.696;23.354;2023-08-24T13:04:48;4.37;;;4.17;;
7833;SDS011;3962;42.696;23.354;2023-08-24T13:07:15;3.93;;;3.73;;
7833;SDS011;3962;42.696;23.354;2023-08-24T13:09:43;4.27;;;4.07;;
7833;SDS011;3962;42.696;23.354;2023-08-24T13:12:12;4.20;;;4.00;;
7833;SDS011;3962;42.696;23.354;2023-08-24T13:14:40;4.33;;;4.07;;
7833;SDS011;3962;42.696;23.354;2023-08-24T13:17:07;4.40;;;4.10;;
7833;SDS011;3962;42.696;23.354;2023-08-24T13:19:33;4.50;;;4.20;;
7833;SDS011;3962;42.696;23.354;2023-08-24T13:22:00;3.40;;;3.30;;
7833;SDS011;3962;42.696;23.354;2023-08-24T13:24:27;4.37;;;4.17;;
7833;SDS011;3962;42.696;23.354;2023-08-24T13:26:55;3.87;;;3.67;;
7833;SDS011;3962;42.696;23.354;2023-08-24T13:29:22;3.90;;;3.70;;
7833;SDS011;3962;42.696;23.354;2023-08-24T13:31:53;4.50;;;4.20;;
7833;SDS011;3962;42.696;23.354;2023-08-24T13:34:20;3.47;;;3.37;;
7833;SDS011;3962;42.696;23.354;2023-08-24T13:36:47;3.33;;;3.23;;
7833;SDS011;3962;42.696;23.354;2023-08-24T13:39:14;4.20;;;4.00;;
7833;SDS011;3962;42.696;23.354;2023-08-24T13:41:42;3.50;;;3.40;;
7833;SDS011;3962;42.696;23.354;2023-08-24T13:44:09;4.80;;;4.50;;
7833;SDS011;3962;42.696;23.354;2023-08-24T13:46:35;3.53;;;3.40;;
7833;SDS011;3962;42.696;23.354;2023-08-24T13:49:04;3.93;;;3.73;;
7833;SDS011;3962;42.696;23.354;2023-08-24T13:51:31;4.37;;;4.07;;
7833;SDS011;3962;42.696;23.354;2023-08-24T13:53:58;4.03;;;3.83;;
7833;SDS011;3962;42.696;23.354;2023-08-24T13:56:24;3.90;;;3.70;;
7833;SDS011;3962;42.696;23.354;2023-08-24T13:58:51;3.93;;;3.73;;
7833;SDS011;3962;42.696;23.354;2023-08-24T14:01:18;3.30;;;3.20;;
7833;SDS011;3962;42.696;23.354;2023-08-24T14:03:45;3.97;;;3.80;;
7833;SDS011;3962;42.696;23.354;2023-08-24T14:06:13;3.70;;;3.60;;
7833;SDS011;3962;42.696;23.354;2023-08-24T14:08:40;4.07;;;3.87;;
7833;SDS011;3962;42.696;23.354;2023-08-24T14:11:07;3.93;;;3.73;;
7833;SDS011;3962;42.696;23.354;2023-08-24T14:13:34;3.47;;;3.27;;
7833;SDS011;3962;42.696;23.354;2023-08-24T14:16:01;3.67;;;3.47;;
7833;SDS011;3962;42.696;23.354;2023-08-24T14:18:28;3.93;;;3.73;;
7833;SDS011;3962;42.696;23.354;2023-08-24T14:20:55;4.23;;;3.93;;
7833;SDS011;3962;42.696;23.354;2023-08-24T14:23:24;4.20;;;4.00;;
7833;SDS011;3962;42.696;23.354;2023-08-24T14:25:53;3.57;;;3.37;;
7833;SDS011;3962;42.696;23.354;2023-08-24T14:28:21;3.80;;;3.60;;
7833;SDS011;3962;42.696;23.354;2023-08-24T14:30:48;3.80;;;3.70;;
7833;SDS011;3962;42.696;23.354;2023-08-24T14:33:15;4.00;;;3.80;;
7833;SDS011;3962;42.696;23.354;2023-08-24T14:35:49;4.00;;;3.80;;
7833;SDS011;3962;42.696;23.354;2023-08-24T14:38:17;3.70;;;3.50;;
7833;SDS011;3962;42.696;23.354;2023-08-24T14:40:46;3.97;;;3.77;;
7833;SDS011;3962;42.696;23.354;2023-08-24T14:43:13;3.23;;;3.13;;
7833;SDS011;3962;42.696;23.354;2023-08-24T14:45:39;4.10;;;3.80;;
7833;SDS011;3962;42.696;23.354;2023-08-24T14:48:06;3.80;;;3.70;;
7833;SDS011;3962;42.696;23.354;2023-08-24T14:50:33;3.80;;;3.70;;
7833;SDS011;3962;42.696;23.354;2023-08-24T14:53:03;3.80;;;3.70;;
7833;SDS011;3962;42.696;23.354;2023-08-24T14:55:30;3.80;;;3.60;;
7833;SDS011;3962;42.696;23.354;2023-08-24T14:57:58;4.03;;;3.83;;
7833;SDS011;3962;42.696;23.354;2023-08-24T15:00:25;4.00;;;3.80;;
7833;SDS011;3962;42.696;23.354;2023-08-24T15:02:52;4.40;;;4.20;;
7833;SDS011;3962;42.696;23.354;2023-08-24T15:05:19;3.67;;;3.50;;
7833;SDS011;3962;42.696;23.354;2023-08-24T15:07:45;3.40;;;3.30;;